createdAt,value
2019-04-04T03:03:42.291Z,4.50
2019-04-04T03:07:14.526Z,4.60
2019-04-04T03:10:28.579Z,4.40
2019-04-04T03:13:32.241Z,4.40
2019-04-04T03:16:03.922Z,4.50
2019-04-04T03:18:37.382Z,4.50
2019-04-04T03:21:10.446Z,4.60
2019-04-04T03:23:41.796Z,4.60
2019-04-04T03:26:19.013Z,4.60
2019-04-04T03:28:49.744Z,4.60
2019-04-04T03:31:36.441Z,4.70
2019-04-04T03:34:11.102Z,4.70
2019-04-04T03:36:39.979Z,4.60
2019-04-04T03:39:19.577Z,4.60
2019-04-04T03:41:54.394Z,4.60
2019-04-04T03:44:39.497Z,4.60
2019-04-04T03:47:16.275Z,4.70
2019-04-04T03:49:56.553Z,4.70
2019-04-04T03:52:24.247Z,4.80
2019-04-04T03:55:14.626Z,4.80
2019-04-04T03:57:48.371Z,4.90
2019-04-04T04:00:31.900Z,4.90
2019-04-04T04:03:03.197Z,5.00
2019-04-04T04:05:35.867Z,4.90
2019-04-04T04:08:51.155Z,5.00
2019-04-04T04:11:37.436Z,5.00
2019-04-04T04:14:22.600Z,5.00
2019-04-04T04:16:59.042Z,5.00
2019-04-04T04:19:37.045Z,5.10
2019-04-04T04:22:08.611Z,5.10
2019-04-04T04:24:38.759Z,5.10
2019-04-04T04:27:49.839Z,5.20
2019-04-04T04:30:27.291Z,5.20
2019-04-04T04:37:53.419Z,5.30
2019-04-04T04:44:25.583Z,5.30
2019-04-04T04:54:04.529Z,5.00
2019-04-04T04:57:03.526Z,5.00
2019-04-04T04:59:54.046Z,5.10
2019-04-04T05:03:12.113Z,5.10
2019-04-04T05:05:51.612Z,5.10
2019-04-04T05:08:29.300Z,5.00
2019-04-04T05:18:17.318Z,5.10
2019-04-04T05:20:49.082Z,5.00
2019-04-04T05:23:20.615Z,5.10
2019-04-04T05:25:54.547Z,5.10
2019-04-04T05:28:25.345Z,5.00
2019-04-04T05:31:00.677Z,5.00
2019-04-04T05:33:31.629Z,5.00
2019-04-04T05:36:15.468Z,5.00
2019-04-04T05:38:50.156Z,5.00
2019-04-04T05:41:27.409Z,5.00
2019-04-04T05:43:58.736Z,5.00
2019-04-04T05:46:37.337Z,4.90
2019-04-04T05:49:11.969Z,4.90
2019-04-04T05:51:48.362Z,4.80
2019-04-04T05:54:26.375Z,4.80
2019-04-04T05:57:15.754Z,4.70
2019-04-04T06:00:03.193Z,4.70
2019-04-04T06:02:36.848Z,4.80
2019-04-04T06:05:10.336Z,4.90
2019-04-04T06:07:44.988Z,4.90
2019-04-04T06:10:19.591Z,5.00
2019-04-04T06:12:56.271Z,4.90
2019-04-04T06:15:32.178Z,4.90
2019-04-04T06:18:02.994Z,4.90
2019-04-04T06:23:30.149Z,4.80
2019-04-04T06:34:12.856Z,4.80
2019-04-04T06:36:55.339Z,4.90
2019-04-04T06:39:54.419Z,4.90
2019-04-04T06:42:36.076Z,4.90
2019-04-04T06:45:07.586Z,5.00
2019-04-04T06:47:44.316Z,4.90
2019-04-04T06:50:15.342Z,4.80
2019-04-04T06:52:45.841Z,4.80
2019-04-04T06:55:18.695Z,4.90
2019-04-04T06:58:02.401Z,5.00
2019-04-04T07:00:33.803Z,4.90
2019-04-04T07:03:05.497Z,4.90
2019-04-04T07:05:38.213Z,4.90
2019-04-04T07:08:08.945Z,4.80
2019-04-04T07:10:41.707Z,4.70
2019-04-04T07:13:21.894Z,4.60
2019-04-04T07:16:05.697Z,4.60
2019-04-04T07:18:23.392Z,4.60
2019-04-04T07:20:54.676Z,4.70
2019-04-04T07:23:30.711Z,4.70
2019-04-04T07:26:00.874Z,4.60
2019-04-04T07:28:34.369Z,4.50
2019-04-04T07:31:06.934Z,4.60
2019-04-04T07:33:42.667Z,4.60
2019-04-04T07:36:12.951Z,4.60
2019-04-04T07:38:45.405Z,4.70
2019-04-04T07:41:16.524Z,4.70
2019-04-04T07:43:46.989Z,4.50
2019-04-04T07:46:18.111Z,4.60
2019-04-04T07:48:52.390Z,4.80
2019-04-04T07:51:24.687Z,4.70
2019-04-04T07:53:58.498Z,4.70
2019-04-04T07:56:28.632Z,4.80
2019-04-04T07:59:01.735Z,4.90
2019-04-04T08:01:33.226Z,4.90
2019-04-04T08:04:06.808Z,5.00
2019-04-04T08:06:38.532Z,5.10
2019-04-04T08:09:09.309Z,4.90
2019-04-04T08:11:39.532Z,4.90
2019-04-04T08:14:09.703Z,5.00
2019-04-04T08:16:39.909Z,5.00
2019-04-04T08:19:15.019Z,5.10
2019-04-04T08:21:46.532Z,5.20
2019-04-04T08:24:17.341Z,5.30
2019-04-04T08:26:49.036Z,5.40
2019-04-04T08:29:19.186Z,5.50
2019-04-04T08:31:50.977Z,5.50
2019-04-04T08:34:22.990Z,5.40
2019-04-04T08:36:55.314Z,5.50
2019-04-04T08:39:26.895Z,5.70
2019-04-04T08:41:58.410Z,5.70
2019-04-04T08:44:33.183Z,5.60
2019-04-04T08:47:03.649Z,5.50
2019-04-04T08:49:33.972Z,5.40
2019-04-04T08:52:16.422Z,5.60
2019-04-04T08:54:42.032Z,5.70
2019-04-04T08:57:12.334Z,5.70
2019-04-04T08:59:46.637Z,5.70
2019-04-04T09:02:21.934Z,5.80
2019-04-04T09:04:53.736Z,5.70
2019-04-04T09:07:25.186Z,5.80
2019-04-04T09:09:58.606Z,5.90
2019-04-04T09:12:38.207Z,5.90
2019-04-04T09:15:14.077Z,6.00
2019-04-04T09:17:54.966Z,6.10
2019-04-04T09:20:33.230Z,6.20
2019-04-04T09:23:07.629Z,6.30
2019-04-04T09:25:40.973Z,6.30
2019-04-04T09:28:14.284Z,6.20
2019-04-04T09:30:44.412Z,6.20
2019-04-04T09:33:27.063Z,6.20
2019-04-04T09:36:02.195Z,6.20
2019-04-04T09:38:41.965Z,6.20
2019-04-04T09:41:14.747Z,6.30
2019-04-04T09:43:46.859Z,6.30
2019-04-04T09:46:26.421Z,6.40
2019-04-04T09:48:54.947Z,6.40
2019-04-04T09:51:25.788Z,6.50
2019-04-04T09:53:57.484Z,6.40
2019-04-04T09:56:36.585Z,6.40
2019-04-04T09:59:08.766Z,6.50
2019-04-04T10:01:41.070Z,6.50
2019-04-04T10:04:15.077Z,6.40
2019-04-04T10:06:47.132Z,6.30
2019-04-04T10:09:22.865Z,6.30
2019-04-04T10:11:56.889Z,6.30
2019-04-04T10:14:30.374Z,6.30
2019-04-04T10:17:03.785Z,6.10
2019-04-04T10:19:37.635Z,5.90
2019-04-04T10:22:08.633Z,5.80
2019-04-04T10:24:40.089Z,5.90
2019-04-04T10:27:11.153Z,6.00
2019-04-04T10:29:41.650Z,6.00
2019-04-04T10:32:14.743Z,6.20
2019-04-04T10:34:45.901Z,6.30
2019-04-04T10:37:18.160Z,6.30
2019-04-04T10:39:49.936Z,6.40
2019-04-04T10:42:20.281Z,6.40
2019-04-04T10:45:09.506Z,6.50
2019-04-04T10:47:41.263Z,6.50
2019-04-04T10:50:17.464Z,6.50
2019-04-04T10:52:47.842Z,6.30
2019-04-04T10:55:20.990Z,5.90
2019-04-04T10:57:53.737Z,5.80
2019-04-04T11:00:25.271Z,5.70
2019-04-04T11:02:56.854Z,5.60
2019-04-04T11:05:28.812Z,5.50
2019-04-04T11:08:13.360Z,5.40
2019-04-04T11:10:46.703Z,5.50
2019-04-04T11:13:32.762Z,5.70
2019-04-04T11:15:57.204Z,5.70
2019-04-04T11:18:37.053Z,5.40
2019-04-04T11:21:12.424Z,5.40
2019-04-04T11:23:51.623Z,5.30
2019-04-04T11:26:22.789Z,5.30
2019-04-04T11:28:55.538Z,5.20
2019-04-04T11:31:34.611Z,5.30
2019-04-04T11:34:08.788Z,5.20
2019-04-04T11:36:42.960Z,5.10
2019-04-04T11:39:39.281Z,5.20
2019-04-04T11:42:18.376Z,5.20
2019-04-04T11:45:06.886Z,5.50
2019-04-04T11:48:09.201Z,5.80
2019-04-04T11:50:46.351Z,5.80
2019-04-04T11:53:17.281Z,5.90
2019-04-04T11:55:49.647Z,5.90
2019-04-04T11:58:21.845Z,5.90
2019-04-04T12:00:58.466Z,5.80
2019-04-04T12:03:35.560Z,5.80
2019-04-04T12:06:50.725Z,5.80
2019-04-04T12:09:33.004Z,5.80
2019-04-04T12:12:05.159Z,5.60
2019-04-04T12:14:39.562Z,5.60
2019-04-04T12:17:26.475Z,5.70
2019-04-04T12:19:58.864Z,5.70
2019-04-04T12:22:29.010Z,5.40
2019-04-04T12:25:02.512Z,5.40
2019-04-04T12:27:32.676Z,5.40
2019-04-04T12:30:04.729Z,5.60
2019-04-04T12:32:37.441Z,5.60
2019-04-04T12:35:09.526Z,5.60
2019-04-04T12:37:40.176Z,5.60
2019-04-04T12:40:31.032Z,5.40
2019-04-04T12:43:26.631Z,5.60
2019-04-04T12:46:00.548Z,5.80
2019-04-04T12:48:32.091Z,5.70
2019-04-04T12:51:02.686Z,5.80
2019-04-04T12:53:34.813Z,5.70
2019-04-04T12:56:05.201Z,5.80
2019-04-04T12:58:35.691Z,5.80
2019-04-04T13:01:09.204Z,5.90
2019-04-04T13:03:43.683Z,5.80
2019-04-04T13:06:20.001Z,5.70
2019-04-04T13:09:03.021Z,5.50
2019-04-04T13:11:41.951Z,5.30
2019-04-04T13:14:15.170Z,5.30
2019-04-04T13:16:51.439Z,5.40
2019-04-04T13:19:24.714Z,5.50
2019-04-04T13:21:56.186Z,5.40
2019-04-04T13:24:28.276Z,5.30
2019-04-04T13:26:59.311Z,5.20
2019-04-04T13:29:35.928Z,5.10
2019-04-04T13:32:10.151Z,5.10
2019-04-04T13:34:58.793Z,5.30
2019-04-04T13:37:21.643Z,5.50
2019-04-04T13:39:52.940Z,5.70
2019-04-04T13:42:26.415Z,5.90
2019-04-04T13:44:58.638Z,6.00
2019-04-04T13:47:32.709Z,6.20
2019-04-04T13:50:07.938Z,6.40
2019-04-04T13:52:42.028Z,6.60
2019-04-04T13:55:12.575Z,6.60
2019-04-04T13:57:43.105Z,6.40
2019-04-04T14:02:53.461Z,6.90
2019-04-04T14:05:26.874Z,7.00
2019-04-04T14:08:00.754Z,7.10
2019-04-04T14:10:34.174Z,7.10
2019-04-04T14:13:06.487Z,6.90
2019-04-04T14:15:38.912Z,7.00
2019-04-04T14:18:38.069Z,7.00
2019-04-04T14:21:03.679Z,6.70
2019-04-04T14:23:31.484Z,6.90
2019-04-04T14:26:06.960Z,6.90
2019-04-04T14:28:37.477Z,6.80
2019-04-04T14:31:12.816Z,6.90
2019-04-04T14:33:47.137Z,6.90
2019-04-04T14:36:17.427Z,6.80
2019-04-04T14:38:53.821Z,6.60
2019-04-04T14:41:27.848Z,6.40
2019-04-04T14:44:22.784Z,6.30
2019-04-04T14:47:06.744Z,6.40
2019-04-04T14:49:45.841Z,6.30
2019-04-04T14:52:27.558Z,6.30
2019-04-04T14:55:00.883Z,6.30
2019-04-04T14:57:32.759Z,6.40
2019-04-04T15:00:07.578Z,6.40
2019-04-04T15:02:41.313Z,6.30
2019-04-04T15:05:19.122Z,6.50
2019-04-04T15:07:53.287Z,6.50
2019-04-04T15:10:28.163Z,6.30
2019-04-04T15:13:06.141Z,6.10
2019-04-04T15:15:46.890Z,6.30
2019-04-04T15:18:18.779Z,6.20
2019-04-04T15:20:52.744Z,6.40
2019-04-04T15:23:29.138Z,6.20
2019-04-04T15:26:05.182Z,6.30
2019-04-04T15:28:35.316Z,6.70
2019-04-04T15:34:44.488Z,7.20
2019-04-04T15:49:33.860Z,7.60
2019-04-04T15:52:52.351Z,7.40
2019-04-04T15:55:26.220Z,7.00
2019-04-04T15:58:58.910Z,6.80
2019-04-04T16:05:06.154Z,6.80
2019-04-04T16:18:26.928Z,6.30
2019-04-04T16:20:57.152Z,6.10
2019-04-04T16:23:28.198Z,6.00
2019-04-04T16:25:58.348Z,5.90
2019-04-04T16:28:31.110Z,6.00
2019-04-04T16:31:01.300Z,5.70
2019-04-04T16:33:31.443Z,5.70
2019-04-04T16:36:05.563Z,5.80
2019-04-04T16:38:36.121Z,5.80
2019-04-04T16:41:09.989Z,5.70
2019-04-04T16:43:40.639Z,5.60
2019-04-04T16:46:13.075Z,5.70
2019-04-04T16:48:43.547Z,5.60
2019-04-04T16:51:16.727Z,5.70
2019-04-04T16:53:47.695Z,5.60
2019-04-04T16:56:19.910Z,5.70
2019-04-04T16:58:50.348Z,5.70
2019-04-04T17:01:42.485Z,5.70
2019-04-04T17:07:31.276Z,5.70
2019-04-04T17:10:05.032Z,5.60
2019-04-04T17:12:43.260Z,5.70
2019-04-04T17:15:16.768Z,5.70
2019-04-04T17:17:53.079Z,5.50
2019-04-04T17:20:37.015Z,5.60
2019-04-04T17:25:53.500Z,5.60
2019-04-04T17:28:37.902Z,5.70
2019-04-04T17:31:13.702Z,5.70
2019-04-04T17:33:57.345Z,5.70
2019-04-04T17:37:07.902Z,5.80
2019-04-04T17:39:43.834Z,5.80
2019-04-04T17:42:29.578Z,5.70
2019-04-04T17:45:00.511Z,5.50
2019-04-04T17:47:40.813Z,5.50
2019-04-04T17:50:19.433Z,5.20
2019-04-04T17:53:14.420Z,5.20
2019-04-04T17:55:46.258Z,5.30
2019-04-04T17:58:31.608Z,5.30
2019-04-04T18:01:14.795Z,5.40
2019-04-04T18:04:14.755Z,5.50
2019-04-04T18:07:06.852Z,5.60
2019-04-04T18:12:41.764Z,5.60
2019-04-04T18:15:15.231Z,5.70
2019-04-04T18:17:59.702Z,5.70
2019-04-04T18:20:33.340Z,5.60
2019-04-04T18:23:04.939Z,5.50
2019-04-04T18:25:35.596Z,5.40
2019-04-04T18:28:09.157Z,5.40
2019-04-04T18:30:45.682Z,5.40
2019-04-04T18:33:19.705Z,5.40
2019-04-04T18:35:52.128Z,5.40
2019-04-04T18:38:37.716Z,5.40
2019-04-04T18:41:27.628Z,5.40
2019-04-04T18:43:58.343Z,5.50
2019-04-04T18:46:30.306Z,5.50
2019-04-04T18:49:04.905Z,5.60
2019-04-04T18:51:37.704Z,5.50
2019-04-04T18:54:08.105Z,5.50
2019-04-04T18:56:40.369Z,5.50
2019-04-04T18:59:14.151Z,5.50
2019-04-04T19:01:46.672Z,5.60
2019-04-04T19:04:21.579Z,5.60
2019-04-04T19:06:58.665Z,5.60
2019-04-04T19:09:33.660Z,5.50
2019-04-04T19:12:11.492Z,5.40
2019-04-04T19:14:43.707Z,5.40
2019-04-04T19:17:16.446Z,5.40
2019-04-04T19:19:50.952Z,5.30
2019-04-04T19:22:22.437Z,5.30
2019-04-04T19:25:02.999Z,5.30
2019-04-04T19:27:36.485Z,5.30
2019-04-04T19:30:08.873Z,5.20
2019-04-04T19:32:41.756Z,5.20
2019-04-04T19:35:13.808Z,5.20
2019-04-04T19:37:58.933Z,5.10
2019-04-04T19:40:19.687Z,5.10
2019-04-04T19:42:56.478Z,5.20
2019-04-04T19:45:26.913Z,5.20
2019-04-04T19:47:57.402Z,5.30
2019-04-04T19:50:31.241Z,5.30
2019-04-04T19:53:03.417Z,5.30
2019-04-04T19:55:33.579Z,5.40
2019-04-04T19:58:15.812Z,5.40
2019-04-04T20:00:47.380Z,5.30
2019-04-04T20:03:19.088Z,5.30
2019-04-04T20:06:15.185Z,5.10
2019-04-04T20:08:46.620Z,5.10
2019-04-04T20:11:21.299Z,5.10
2019-04-04T20:13:51.468Z,5.00
2019-04-04T20:16:23.281Z,5.10
2019-04-04T20:18:54.716Z,5.10
2019-04-04T20:21:24.822Z,5.00
2019-04-04T20:23:55.033Z,4.90
2019-04-04T20:26:28.289Z,4.90
2019-04-04T20:29:03.972Z,4.80
2019-04-04T20:31:34.174Z,4.90
2019-04-04T20:34:06.293Z,4.90
2019-04-04T20:36:42.125Z,4.90
2019-04-04T20:39:13.248Z,5.00
2019-04-04T20:41:47.635Z,5.00
2019-04-04T20:44:21.040Z,5.10
2019-04-04T20:46:53.823Z,5.10
2019-04-04T20:49:25.753Z,5.10
2019-04-04T20:51:59.773Z,5.10
2019-04-04T20:54:33.370Z,5.20
2019-04-04T20:57:03.540Z,5.20
2019-04-04T20:59:34.922Z,5.30
2019-04-04T21:02:05.089Z,5.30
2019-04-04T21:04:36.297Z,5.20
2019-04-04T21:07:07.592Z,5.10
2019-04-04T21:09:40.388Z,5.10
2019-04-04T21:12:13.053Z,5.10
2019-04-04T21:14:43.446Z,5.10
2019-04-04T21:17:13.591Z,5.10
2019-04-04T21:19:46.742Z,5.00
2019-04-04T21:22:27.310Z,4.90
2019-04-04T21:24:52.432Z,4.90
2019-04-04T21:27:24.612Z,5.00
2019-04-04T21:29:54.809Z,4.90
2019-04-04T21:32:27.260Z,4.80
2019-04-04T21:35:00.128Z,4.80
2019-04-04T21:37:32.526Z,4.80
2019-04-04T21:40:02.923Z,4.90
2019-04-04T21:42:36.775Z,4.90
2019-04-04T21:45:07.787Z,4.80
2019-04-04T21:47:40.038Z,4.80
2019-04-04T21:50:12.623Z,4.70
2019-04-04T21:52:44.867Z,4.80
2019-04-04T21:55:15.937Z,4.80
2019-04-04T21:57:46.820Z,4.80
2019-04-04T22:00:17.069Z,4.70
2019-04-04T22:02:50.176Z,4.70
2019-04-04T22:05:20.789Z,4.60
2019-04-04T22:07:52.904Z,4.70
2019-04-04T22:10:23.179Z,4.80
2019-04-04T22:12:54.461Z,4.90
2019-04-04T22:15:24.635Z,4.70
2019-04-04T22:20:31.039Z,4.90
2019-04-04T22:23:01.191Z,4.90
2019-04-04T22:25:35.473Z,5.00
2019-04-04T22:28:18.161Z,5.00
2019-04-04T22:30:51.615Z,5.00
2019-04-04T22:33:22.625Z,5.10
2019-04-04T22:35:52.748Z,5.10
2019-04-04T22:38:25.708Z,5.00
2019-04-04T22:40:57.593Z,4.90
2019-04-04T22:43:35.158Z,4.90
2019-04-04T22:46:06.235Z,4.90
2019-04-04T22:48:37.959Z,4.90
2019-04-04T22:51:08.465Z,5.00
2019-04-04T22:53:39.084Z,4.90
2019-04-04T22:56:12.165Z,4.80
2019-04-04T22:58:43.503Z,4.80
2019-04-04T23:01:13.609Z,4.90
2019-04-04T23:03:45.564Z,4.90
2019-04-04T23:06:18.581Z,4.80
2019-04-04T23:08:49.569Z,4.90
2019-04-04T23:11:20.138Z,4.90
2019-04-04T23:13:50.233Z,4.80
2019-04-04T23:16:21.147Z,4.80
2019-04-04T23:18:51.682Z,4.80
2019-04-04T23:21:27.149Z,4.80
2019-04-04T23:23:58.525Z,4.90
2019-04-04T23:26:29.146Z,4.90
2019-04-04T23:28:59.641Z,4.90
2019-04-04T23:31:30.906Z,4.80
2019-04-04T23:34:01.842Z,4.80
2019-04-04T23:36:35.058Z,4.80
2019-04-04T23:39:07.633Z,4.80
2019-04-04T23:41:38.680Z,4.70
2019-04-04T23:44:12.140Z,4.70
2019-04-04T23:46:43.550Z,4.80
2019-04-04T23:49:16.899Z,4.80
2019-04-04T23:51:50.479Z,4.70
2019-04-04T23:54:22.380Z,4.80
2019-04-04T23:56:52.486Z,4.80
2019-04-04T23:59:22.733Z,4.80
